sensor_id;sensor_type;location;lat;lon;timestamp;temperature;humidity
20915;DHT22;10617;52.032;5.298;2023-11-19T00:01:43;13.70;99.90
20915;DHT22;10617;52.032;5.298;2023-11-19T00:05:45;13.70;99.90
20915;DHT22;10617;52.032;5.298;2023-11-19T00:09:46;13.70;99.90
20915;DHT22;10617;52.032;5.298;2023-11-19T00:13:48;13.70;99.90
20915;DHT22;10617;52.032;5.298;2023-11-19T00:17:50;13.80;99.90
20915;DHT22;10617;52.032;5.298;2023-11-19T00:21:52;13.80;99.90
20915;DHT22;10617;52.032;5.298;2023-11-19T00:25:54;13.80;99.90
20915;DHT22;10617;52.032;5.298;2023-11-19T00:29:55;13.80;99.90
20915;DHT22;10617;52.032;5.298;2023-11-19T00:33:58;13.80;99.90
20915;DHT22;10617;52.032;5.298;2023-11-19T00:38:00;13.80;99.90
20915;DHT22;10617;52.032;5.298;2023-11-19T00:42:02;13.80;99.90
20915;DHT22;10617;52.032;5.298;2023-11-19T00:46:06;13.80;99.90
20915;DHT22;10617;52.032;5.298;2023-11-19T00:50:08;13.80;99.90
20915;DHT22;10617;52.032;5.298;2023-11-19T00:54:14;13.80;99.90
20915;DHT22;10617;52.032;5.298;2023-11-19T00:58:15;13.80;99.90
20915;DHT22;10617;52.032;5.298;2023-11-19T01:02:19;13.90;99.90
20915;DHT22;10617;52.032;5.298;2023-11-19T01:06:30;13.80;99.90
20915;DHT22;10617;52.032;5.298;2023-11-19T01:10:32;13.80;99.90
20915;DHT22;10617;52.032;5.298;2023-11-19T01:14:34;13.80;99.90
20915;DHT22;10617;52.032;5.298;2023-11-19T01:18:35;13.90;99.90
20915;DHT22;10617;52.032;5.298;2023-11-19T01:22:37;13.90;99.90
20915;DHT22;10617;52.032;5.298;2023-11-19T01:26:39;13.90;99.90
20915;DHT22;10617;52.032;5.298;2023-11-19T01:30:41;13.90;99.90
20915;DHT22;10617;52.032;5.298;2023-11-19T01:34:42;13.90;99.90
20915;DHT22;10617;52.032;5.298;2023-11-19T01:38:44;13.90;99.90
20915;DHT22;10617;52.032;5.298;2023-11-19T01:42:46;13.80;99.90
20915;DHT22;10617;52.032;5.298;2023-11-19T01:46:47;13.80;99.90
20915;DHT22;10617;52.032;5.298;2023-11-19T01:50:50;13.80;99.90
20915;DHT22;10617;52.032;5.298;2023-11-19T01:55:02;13.80;99.90
20915;DHT22;10617;52.032;5.298;2023-11-19T01:59:04;13.70;99.90
20915;DHT22;10617;52.032;5.298;2023-11-19T02:03:06;13.70;99.90
20915;DHT22;10617;52.032;5.298;2023-11-19T02:07:09;13.60;99.90
20915;DHT22;10617;52.032;5.298;2023-11-19T02:11:12;13.50;99.90
20915;DHT22;10617;52.032;5.298;2023-11-19T02:20:17;13.40;99.90
20915;DHT22;10617;52.032;5.298;2023-11-19T02:24:21;13.30;99.90
20915;DHT22;10617;52.032;5.298;2023-11-19T02:28:24;13.20;99.90
20915;DHT22;10617;52.032;5.298;2023-11-19T02:32:27;13.20;99.90
20915;DHT22;10617;52.032;5.298;2023-11-19T02:41:32;13.10;99.90
20915;DHT22;10617;52.032;5.298;2023-11-19T02:45:33;13.00;99.90
20915;DHT22;10617;52.032;5.298;2023-11-19T02:49:35;13.00;99.90
20915;DHT22;10617;52.032;5.298;2023-11-19T02:53:38;12.90;99.90
20915;DHT22;10617;52.032;5.298;2023-11-19T02:57:41;12.80;99.90
20915;DHT22;10617;52.032;5.298;2023-11-19T03:17:06;12.70;99.90
20915;DHT22;10617;52.032;5.298;2023-11-19T03:21:08;12.60;99.90
20915;DHT22;10617;52.032;5.298;2023-11-19T03:25:10;12.60;99.90
20915;DHT22;10617;52.032;5.298;2023-11-19T03:29:12;12.60;99.90
20915;DHT22;10617;52.032;5.298;2023-11-19T03:33:13;12.50;99.90
20915;DHT22;10617;52.032;5.298;2023-11-19T03:37:15;12.50;99.90
20915;DHT22;10617;52.032;5.298;2023-11-19T03:41:19;12.50;99.90
20915;DHT22;10617;52.032;5.298;2023-11-19T03:45:21;12.40;99.90
20915;DHT22;10617;52.032;5.298;2023-11-19T03:49:22;12.40;99.90
20915;DHT22;10617;52.032;5.298;2023-11-19T03:53:25;12.30;99.90
20915;DHT22;10617;52.032;5.298;2023-11-19T03:57:27;12.30;99.90
20915;DHT22;10617;52.032;5.298;2023-11-19T04:01:29;12.30;99.90
20915;DHT22;10617;52.032;5.298;2023-11-19T04:05:31;12.20;99.90
20915;DHT22;10617;52.032;5.298;2023-11-19T04:09:32;12.20;99.90
20915;DHT22;10617;52.032;5.298;2023-11-19T04:23:41;12.10;99.90
20915;DHT22;10617;52.032;5.298;2023-11-19T04:27:42;12.10;99.90
20915;DHT22;10617;52.032;5.298;2023-11-19T04:31:44;12.00;99.90
20915;DHT22;10617;52.032;5.298;2023-11-19T04:35:47;12.00;99.90
20915;DHT22;10617;52.032;5.298;2023-11-19T04:39:48;12.00;99.90
20915;DHT22;10617;52.032;5.298;2023-11-19T04:43:50;12.00;99.90
20915;DHT22;10617;52.032;5.298;2023-11-19T04:47:51;11.90;99.90
20915;DHT22;10617;52.032;5.298;2023-11-19T05:02:01;11.90;99.90
20915;DHT22;10617;52.032;5.298;2023-11-19T05:06:03;11.90;99.90
20915;DHT22;10617;52.032;5.298;2023-11-19T05:10:05;11.80;99.90
20915;DHT22;10617;52.032;5.298;2023-11-19T05:14:07;11.80;99.90
20915;DHT22;10617;52.032;5.298;2023-11-19T05:18:10;11.80;99.90
20915;DHT22;10617;52.032;5.298;2023-11-19T05:22:12;11.80;99.90
20915;DHT22;10617;52.032;5.298;2023-11-19T05:26:18;11.80;99.90
20915;DHT22;10617;52.032;5.298;2023-11-19T05:30:20;11.80;99.90
20915;DHT22;10617;52.032;5.298;2023-11-19T05:34:21;11.80;99.90
20915;DHT22;10617;52.032;5.298;2023-11-19T05:38:23;11.80;99.90
20915;DHT22;10617;52.032;5.298;2023-11-19T05:42:25;11.70;99.90
20915;DHT22;10617;52.032;5.298;2023-11-19T05:46:26;11.80;99.90
20915;DHT22;10617;52.032;5.298;2023-11-19T05:50:28;11.80;99.90
20915;DHT22;10617;52.032;5.298;2023-11-19T05:54:30;11.70;99.90
20915;DHT22;10617;52.032;5.298;2023-11-19T05:58:33;11.70;99.90
20915;DHT22;10617;52.032;5.298;2023-11-19T06:02:34;11.70;99.90
20915;DHT22;10617;52.032;5.298;2023-11-19T06:06:36;11.70;99.90
20915;DHT22;10617;52.032;5.298;2023-11-19T06:10:38;11.70;99.90
20915;DHT22;10617;52.032;5.298;2023-11-19T06:14:40;11.70;99.90
20915;DHT22;10617;52.032;5.298;2023-11-19T06:18:42;11.60;99.90
20915;DHT22;10617;52.032;5.298;2023-11-19T06:22:45;11.70;99.90
20915;DHT22;10617;52.032;5.298;2023-11-19T06:26:47;11.70;99.90
20915;DHT22;10617;52.032;5.298;2023-11-19T06:30:49;11.60;99.90
20915;DHT22;10617;52.032;5.298;2023-11-19T06:34:51;11.60;99.90
20915;DHT22;10617;52.032;5.298;2023-11-19T06:38:52;11.60;99.90
20915;DHT22;10617;52.032;5.298;2023-11-19T06:42:54;11.60;99.90
20915;DHT22;10617;52.032;5.298;2023-11-19T06:46:56;11.60;99.90
20915;DHT22;10617;52.032;5.298;2023-11-19T06:50:57;11.60;99.90
20915;DHT22;10617;52.032;5.298;2023-11-19T06:54:59;11.60;99.90
20915;DHT22;10617;52.032;5.298;2023-11-19T06:59:04;11.50;99.90
20915;DHT22;10617;52.032;5.298;2023-11-19T07:03:05;11.50;99.90
20915;DHT22;10617;52.032;5.298;2023-11-19T07:07:10;11.50;99.90
20915;DHT22;10617;52.032;5.298;2023-11-19T07:11:12;11.50;99.90
20915;DHT22;10617;52.032;5.298;2023-11-19T07:15:15;11.50;99.90
20915;DHT22;10617;52.032;5.298;2023-11-19T07:24:22;11.50;99.90
20915;DHT22;10617;52.032;5.298;2023-11-19T07:28:24;11.50;99.90
20915;DHT22;10617;52.032;5.298;2023-11-19T07:32:26;11.50;99.90
20915;DHT22;10617;52.032;5.298;2023-11-19T07:36:27;11.50;99.90
20915;DHT22;10617;52.032;5.298;2023-11-19T07:40:29;11.60;99.90
20915;DHT22;10617;52.032;5.298;2023-11-19T07:44:31;11.60;99.90
20915;DHT22;10617;52.032;5.298;2023-11-19T07:48:33;11.70;99.90
20915;DHT22;10617;52.032;5.298;2023-11-19T07:52:37;11.70;99.90
20915;DHT22;10617;52.032;5.298;2023-11-19T07:56:38;11.70;99.90
20915;DHT22;10617;52.032;5.298;2023-11-19T08:00:40;11.70;99.90
20915;DHT22;10617;52.032;5.298;2023-11-19T08:04:42;11.80;99.90
20915;DHT22;10617;52.032;5.298;2023-11-19T08:08:46;11.70;99.90
20915;DHT22;10617;52.032;5.298;2023-11-19T08:12:49;11.80;99.90
20915;DHT22;10617;52.032;5.298;2023-11-19T08:16:51;11.80;99.90
20915;DHT22;10617;52.032;5.298;2023-11-19T08:20:52;11.90;99.90
20915;DHT22;10617;52.032;5.298;2023-11-19T08:24:55;11.90;99.90
20915;DHT22;10617;52.032;5.298;2023-11-19T08:28:56;11.90;99.90
20915;DHT22;10617;52.032;5.298;2023-11-19T08:32:59;12.00;99.90
20915;DHT22;10617;52.032;5.298;2023-11-19T08:37:04;12.00;99.90
20915;DHT22;10617;52.032;5.298;2023-11-19T08:41:05;12.00;99.90
20915;DHT22;10617;52.032;5.298;2023-11-19T08:45:08;12.00;99.90
20915;DHT22;10617;52.032;5.298;2023-11-19T08:49:11;12.10;99.90
20915;DHT22;10617;52.032;5.298;2023-11-19T08:53:13;12.10;99.90
20915;DHT22;10617;52.032;5.298;2023-11-19T08:57:15;12.20;99.90
20915;DHT22;10617;52.032;5.298;2023-11-19T09:01:16;12.40;99.90
20915;DHT22;10617;52.032;5.298;2023-11-19T09:05:18;12.50;99.90
20915;DHT22;10617;52.032;5.298;2023-11-19T09:09:20;12.50;99.90
20915;DHT22;10617;52.032;5.298;2023-11-19T09:13:21;12.50;99.90
20915;DHT22;10617;52.032;5.298;2023-11-19T09:17:23;12.60;99.90
20915;DHT22;10617;52.032;5.298;2023-11-19T09:21:25;12.70;99.90
20915;DHT22;10617;52.032;5.298;2023-11-19T09:25:27;12.70;99.90
20915;DHT22;10617;52.032;5.298;2023-11-19T09:29:44;12.70;99.90
20915;DHT22;10617;52.032;5.298;2023-11-19T09:33:48;12.70;99.90
20915;DHT22;10617;52.032;5.298;2023-11-19T09:37:49;12.70;99.90
20915;DHT22;10617;52.032;5.298;2023-11-19T09:41:51;12.80;99.90
20915;DHT22;10617;52.032;5.298;2023-11-19T09:45:53;12.90;99.90
20915;DHT22;10617;52.032;5.298;2023-11-19T09:49:56;13.10;99.90
20915;DHT22;10617;52.032;5.298;2023-11-19T09:53:59;13.20;99.90
20915;DHT22;10617;52.032;5.298;2023-11-19T09:58:01;13.10;99.90
20915;DHT22;10617;52.032;5.298;2023-11-19T10:02:03;13.10;99.90
20915;DHT22;10617;52.032;5.298;2023-11-19T10:06:06;13.00;99.90
20915;DHT22;10617;52.032;5.298;2023-11-19T10:10:08;13.00;99.90
20915;DHT22;10617;52.032;5.298;2023-11-19T10:14:12;13.00;99.90
20915;DHT22;10617;52.032;5.298;2023-11-19T10:18:14;13.10;99.90
20915;DHT22;10617;52.032;5.298;2023-11-19T10:22:16;13.40;99.90
20915;DHT22;10617;52.032;5.298;2023-11-19T10:26:20;13.60;99.90
20915;DHT22;10617;52.032;5.298;2023-11-19T10:30:26;13.70;99.90
20915;DHT22;10617;52.032;5.298;2023-11-19T10:34:28;13.90;99.90
20915;DHT22;10617;52.032;5.298;2023-11-19T10:38:31;14.20;99.90
20915;DHT22;10617;52.032;5.298;2023-11-19T10:42:32;14.40;99.90
20915;DHT22;10617;52.032;5.298;2023-11-19T10:46:40;14.80;99.90
20915;DHT22;10617;52.032;5.298;2023-11-19T10:50:43;14.90;99.90
20915;DHT22;10617;52.032;5.298;2023-11-19T10:54:47;14.80;99.90
20915;DHT22;10617;52.032;5.298;2023-11-19T10:58:50;15.00;99.90
20915;DHT22;10617;52.032;5.298;2023-11-19T11:02:54;15.40;99.90
20915;DHT22;10617;52.032;5.298;2023-11-19T11:06:56;15.80;99.90
20915;DHT22;10617;52.032;5.298;2023-11-19T11:11:00;15.70;99.90
20915;DHT22;10617;52.032;5.298;2023-11-19T11:15:03;15.60;99.90
20915;DHT22;10617;52.032;5.298;2023-11-19T11:19:05;15.30;99.90
20915;DHT22;10617;52.032;5.298;2023-11-19T11:35:53;14.50;99.90
20915;DHT22;10617;52.032;5.298;2023-11-19T11:39:57;14.60;99.90
20915;DHT22;10617;52.032;5.298;2023-11-19T11:54:00;14.30;99.90
20915;DHT22;10617;52.032;5.298;2023-11-19T11:58:07;14.10;99.90
20915;DHT22;10617;52.032;5.298;2023-11-19T12:02:14;14.20;99.90
20915;DHT22;10617;52.032;5.298;2023-11-19T12:11:21;14.50;99.90
20915;DHT22;10617;52.032;5.298;2023-11-19T12:15:25;14.70;99.90
20915;DHT22;10617;52.032;5.298;2023-11-19T12:19:29;14.90;99.90
20915;DHT22;10617;52.032;5.298;2023-11-19T12:23:30;15.10;99.90
20915;DHT22;10617;52.032;5.298;2023-11-19T12:27:33;15.10;99.90
20915;DHT22;10617;52.032;5.298;2023-11-19T12:31:37;15.10;99.90
20915;DHT22;10617;52.032;5.298;2023-11-19T12:39:41;15.00;99.90
20915;DHT22;10617;52.032;5.298;2023-11-19T12:43:43;15.10;99.90
20915;DHT22;10617;52.032;5.298;2023-11-19T12:47:47;15.10;99.90
20915;DHT22;10617;52.032;5.298;2023-11-19T12:51:50;15.00;99.90
20915;DHT22;10617;52.032;5.298;2023-11-19T12:55:53;14.90;99.90
20915;DHT22;10617;52.032;5.298;2023-11-19T12:59:55;14.90;99.90
20915;DHT22;10617;52.032;5.298;2023-11-19T13:03:58;14.90;99.90
20915;DHT22;10617;52.032;5.298;2023-11-19T13:08:04;14.70;99.90
20915;DHT22;10617;52.032;5.298;2023-11-19T13:12:13;14.50;99.90
20915;DHT22;10617;52.032;5.298;2023-11-19T13:16:16;14.40;99.90
20915;DHT22;10617;52.032;5.298;2023-11-19T13:20:21;14.20;99.90
20915;DHT22;10617;52.032;5.298;2023-11-19T13:24:22;14.10;99.90
20915;DHT22;10617;52.032;5.298;2023-11-19T13:28:24;13.80;99.90
20915;DHT22;10617;52.032;5.298;2023-11-19T13:32:27;13.60;99.90
20915;DHT22;10617;52.032;5.298;2023-11-19T13:36:29;13.30;99.90
20915;DHT22;10617;52.032;5.298;2023-11-19T13:40:32;12.90;99.90
20915;DHT22;10617;52.032;5.298;2023-11-19T13:44:34;12.70;99.90
20915;DHT22;10617;52.032;5.298;2023-11-19T13:48:35;12.60;99.90
20915;DHT22;10617;52.032;5.298;2023-11-19T13:52:37;12.50;99.90
20915;DHT22;10617;52.032;5.298;2023-11-19T13:56:40;12.50;99.90
20915;DHT22;10617;52.032;5.298;2023-11-19T14:00:42;12.40;99.90
20915;DHT22;10617;52.032;5.298;2023-11-19T14:04:44;12.30;99.90
20915;DHT22;10617;52.032;5.298;2023-11-19T14:08:46;12.30;99.90
20915;DHT22;10617;52.032;5.298;2023-11-19T14:12:48;12.40;99.90
20915;DHT22;10617;52.032;5.298;2023-11-19T14:16:51;12.50;99.90
20915;DHT22;10617;52.032;5.298;2023-11-19T14:20:53;12.50;99.90
20915;DHT22;10617;52.032;5.298;2023-11-19T14:24:55;12.60;99.90
20915;DHT22;10617;52.032;5.298;2023-11-19T14:28:57;12.70;99.90
20915;DHT22;10617;52.032;5.298;2023-11-19T14:32:58;12.60;99.90
20915;DHT22;10617;52.032;5.298;2023-11-19T14:37:00;12.60;99.90
20915;DHT22;10617;52.032;5.298;2023-11-19T14:41:02;12.60;99.90
20915;DHT22;10617;52.032;5.298;2023-11-19T14:45:04;12.60;99.90
20915;DHT22;10617;52.032;5.298;2023-11-19T14:49:06;12.60;99.90
20915;DHT22;10617;52.032;5.298;2023-11-19T14:53:09;12.60;99.90
20915;DHT22;10617;52.032;5.298;2023-11-19T14:57:10;12.60;99.90
20915;DHT22;10617;52.032;5.298;2023-11-19T15:01:12;12.50;99.90
20915;DHT22;10617;52.032;5.298;2023-11-19T15:05:14;12.50;99.90
20915;DHT22;10617;52.032;5.298;2023-11-19T15:09:16;12.50;99.90
20915;DHT22;10617;52.032;5.298;2023-11-19T15:13:18;12.60;99.90
20915;DHT22;10617;52.032;5.298;2023-11-19T15:17:19;12.60;99.90
20915;DHT22;10617;52.032;5.298;2023-11-19T15:21:22;12.60;99.90
20915;DHT22;10617;52.032;5.298;2023-11-19T15:25:24;12.60;99.90
20915;DHT22;10617;52.032;5.298;2023-11-19T15:29:26;12.50;99.90
20915;DHT22;10617;52.032;5.298;2023-11-19T15:33:27;12.60;99.90
20915;DHT22;10617;52.032;5.298;2023-11-19T15:37:29;12.60;99.90
20915;DHT22;10617;52.032;5.298;2023-11-19T15:41:31;12.60;99.90
20915;DHT22;10617;52.032;5.298;2023-11-19T15:45:34;12.50;99.90
20915;DHT22;10617;52.032;5.298;2023-11-19T15:49:40;12.60;99.90
20915;DHT22;10617;52.032;5.298;2023-11-19T15:53:42;12.60;99.90
20915;DHT22;10617;52.032;5.298;2023-11-19T15:57:44;12.60;99.90
20915;DHT22;10617;52.032;5.298;2023-11-19T16:01:46;12.60;99.90
20915;DHT22;10617;52.032;5.298;2023-11-19T16:05:48;12.60;99.90
20915;DHT22;10617;52.032;5.298;2023-11-19T16:09:58;12.50;99.90
20915;DHT22;10617;52.032;5.298;2023-11-19T16:14:00;12.40;99.90
20915;DHT22;10617;52.032;5.298;2023-11-19T16:18:03;12.30;99.90
20915;DHT22;10617;52.032;5.298;2023-11-19T16:22:04;12.30;99.90
20915;DHT22;10617;52.032;5.298;2023-11-19T16:26:11;12.30;99.90
20915;DHT22;10617;52.032;5.298;2023-11-19T16:30:13;12.30;99.90
20915;DHT22;10617;52.032;5.298;2023-11-19T16:34:14;12.20;99.90
20915;DHT22;10617;52.032;5.298;2023-11-19T16:38:16;12.10;99.90
20915;DHT22;10617;52.032;5.298;2023-11-19T16:42:18;11.90;99.90
20915;DHT22;10617;52.032;5.298;2023-11-19T16:46:22;11.80;99.90
20915;DHT22;10617;52.032;5.298;2023-11-19T16:50:26;11.80;99.90
20915;DHT22;10617;52.032;5.298;2023-11-19T16:54:28;11.70;99.90
20915;DHT22;10617;52.032;5.298;2023-11-19T16:58:31;11.70;99.90
20915;DHT22;10617;52.032;5.298;2023-11-19T17:02:33;11.70;99.90
20915;DHT22;10617;52.032;5.298;2023-11-19T17:06:51;11.70;99.90
20915;DHT22;10617;52.032;5.298;2023-11-19T17:10:53;11.60;99.90
20915;DHT22;10617;52.032;5.298;2023-11-19T17:14:55;11.60;99.90
20915;DHT22;10617;52.032;5.298;2023-11-19T17:19:05;11.60;99.90
20915;DHT22;10617;52.032;5.298;2023-11-19T17:23:06;11.60;99.90
20915;DHT22;10617;52.032;5.298;2023-11-19T17:27:10;11.60;99.90
20915;DHT22;10617;52.032;5.298;2023-11-19T17:31:11;11.60;99.90
20915;DHT22;10617;52.032;5.298;2023-11-19T17:35:15;11.60;99.90
20915;DHT22;10617;52.032;5.298;2023-11-19T17:39:17;11.60;99.90
20915;DHT22;10617;52.032;5.298;2023-11-19T17:43:18;11.60;99.90
20915;DHT22;10617;52.032;5.298;2023-11-19T17:47:20;11.60;99.90
20915;DHT22;10617;52.032;5.298;2023-11-19T17:51:22;11.60;99.90
20915;DHT22;10617;52.032;5.298;2023-11-19T17:55:24;11.50;99.90
20915;DHT22;10617;52.032;5.298;2023-11-19T17:59:25;11.50;99.90
20915;DHT22;10617;52.032;5.298;2023-11-19T18:03:27;11.50;99.90
20915;DHT22;10617;52.032;5.298;2023-11-19T18:07:29;11.50;99.90
20915;DHT22;10617;52.032;5.298;2023-11-19T18:11:35;11.50;99.90
20915;DHT22;10617;52.032;5.298;2023-11-19T18:15:38;11.50;99.90
20915;DHT22;10617;52.032;5.298;2023-11-19T18:19:39;11.50;99.90
20915;DHT22;10617;52.032;5.298;2023-11-19T18:23:41;11.50;99.90
20915;DHT22;10617;52.032;5.298;2023-11-19T18:27:43;11.50;99.90
20915;DHT22;10617;52.032;5.298;2023-11-19T18:31:44;11.50;99.90
20915;DHT22;10617;52.032;5.298;2023-11-19T18:35:46;11.50;99.90
20915;DHT22;10617;52.032;5.298;2023-11-19T18:39:48;11.50;99.90
20915;DHT22;10617;52.032;5.298;2023-11-19T18:43:49;11.50;99.90
20915;DHT22;10617;52.032;5.298;2023-11-19T18:47:51;11.50;99.90
20915;DHT22;10617;52.032;5.298;2023-11-19T18:51:53;11.50;99.90
20915;DHT22;10617;52.032;5.298;2023-11-19T18:55:55;11.50;99.90
20915;DHT22;10617;52.032;5.298;2023-11-19T18:59:56;11.50;99.90
20915;DHT22;10617;52.032;5.298;2023-11-19T19:03:58;11.50;99.90
20915;DHT22;10617;52.032;5.298;2023-11-19T19:08:00;11.50;99.90
20915;DHT22;10617;52.032;5.298;2023-11-19T19:12:03;11.50;99.90
20915;DHT22;10617;52.032;5.298;2023-11-19T19:16:05;11.50;99.90
20915;DHT22;10617;52.032;5.298;2023-11-19T19:20:07;11.50;99.90
20915;DHT22;10617;52.032;5.298;2023-11-19T19:24:09;11.50;99.90
20915;DHT22;10617;52.032;5.298;2023-11-19T19:28:11;11.50;99.90
20915;DHT22;10617;52.032;5.298;2023-11-19T19:32:16;11.50;99.90
20915;DHT22;10617;52.032;5.298;2023-11-19T19:36:17;11.50;99.90
20915;DHT22;10617;52.032;5.298;2023-11-19T19:40:19;11.50;99.90
20915;DHT22;10617;52.032;5.298;2023-11-19T19:44:23;11.50;99.90
20915;DHT22;10617;52.032;5.298;2023-11-19T19:48:26;11.50;99.90
20915;DHT22;10617;52.032;5.298;2023-11-19T19:52:28;11.50;99.90
20915;DHT22;10617;52.032;5.298;2023-11-19T19:56:36;11.50;99.90
20915;DHT22;10617;52.032;5.298;2023-11-19T20:00:38;11.50;99.90
20915;DHT22;10617;52.032;5.298;2023-11-19T20:04:39;11.60;99.90
20915;DHT22;10617;52.032;5.298;2023-11-19T20:08:44;11.60;99.90
20915;DHT22;10617;52.032;5.298;2023-11-19T20:12:47;11.60;99.90
20915;DHT22;10617;52.032;5.298;2023-11-19T20:16:49;11.60;99.90
20915;DHT22;10617;52.032;5.298;2023-11-19T20:21:11;11.60;99.90
20915;DHT22;10617;52.032;5.298;2023-11-19T20:25:13;11.60;99.90
20915;DHT22;10617;52.032;5.298;2023-11-19T20:29:15;11.70;99.90
20915;DHT22;10617;52.032;5.298;2023-11-19T20:33:17;11.70;99.90
20915;DHT22;10617;52.032;5.298;2023-11-19T20:37:18;11.70;99.90
20915;DHT22;10617;52.032;5.298;2023-11-19T20:41:20;11.80;99.90
20915;DHT22;10617;52.032;5.298;2023-11-19T20:45:22;11.80;99.90
20915;DHT22;10617;52.032;5.298;2023-11-19T20:49:28;11.80;99.90
20915;DHT22;10617;52.032;5.298;2023-11-19T20:53:31;11.80;99.90
20915;DHT22;10617;52.032;5.298;2023-11-19T20:57:32;11.80;99.90
20915;DHT22;10617;52.032;5.298;2023-11-19T21:01:34;11.80;99.90
20915;DHT22;10617;52.032;5.298;2023-11-19T21:05:36;11.80;99.90
20915;DHT22;10617;52.032;5.298;2023-11-19T21:09:39;11.90;99.90
20915;DHT22;10617;52.032;5.298;2023-11-19T21:13:41;11.90;99.90
20915;DHT22;10617;52.032;5.298;2023-11-19T21:17:43;11.90;99.90
20915;DHT22;10617;52.032;5.298;2023-11-19T21:21:44;11.90;99.90
20915;DHT22;10617;52.032;5.298;2023-11-19T21:25:46;11.90;99.90
20915;DHT22;10617;52.032;5.298;2023-11-19T21:29:48;11.90;99.90
20915;DHT22;10617;52.032;5.298;2023-11-19T21:33:50;12.00;99.90
20915;DHT22;10617;52.032;5.298;2023-11-19T21:37:51;12.00;99.90
20915;DHT22;10617;52.032;5.298;2023-11-19T21:41:53;12.00;99.90
20915;DHT22;10617;52.032;5.298;2023-11-19T21:45:56;12.10;99.90
20915;DHT22;10617;52.032;5.298;2023-11-19T21:49:57;12.10;99.90
20915;DHT22;10617;52.032;5.298;2023-11-19T21:54:02;12.10;99.90
20915;DHT22;10617;52.032;5.298;2023-11-19T21:58:04;12.10;99.90
20915;DHT22;10617;52.032;5.298;2023-11-19T22:02:05;12.20;99.90
20915;DHT22;10617;52.032;5.298;2023-11-19T22:06:08;12.20;99.90
20915;DHT22;10617;52.032;5.298;2023-11-19T22:10:11;12.10;99.90
20915;DHT22;10617;52.032;5.298;2023-11-19T22:14:14;12.10;99.90
20915;DHT22;10617;52.032;5.298;2023-11-19T22:18:16;12.10;99.90
20915;DHT22;10617;52.032;5.298;2023-11-19T22:22:18;12.00;99.90
20915;DHT22;10617;52.032;5.298;2023-11-19T22:26:21;12.00;99.90
20915;DHT22;10617;52.032;5.298;2023-11-19T22:30:23;12.00;99.90
20915;DHT22;10617;52.032;5.298;2023-11-19T22:34:25;12.00;99.90
20915;DHT22;10617;52.032;5.298;2023-11-19T22:38:26;12.00;99.90
20915;DHT22;10617;52.032;5.298;2023-11-19T22:42:28;11.90;99.90
20915;DHT22;10617;52.032;5.298;2023-11-19T22:46:30;11.90;99.90
20915;DHT22;10617;52.032;5.298;2023-11-19T22:50:32;11.90;99.90
20915;DHT22;10617;52.032;5.298;2023-11-19T22:54:33;11.90;99.90
20915;DHT22;10617;52.032;5.298;2023-11-19T22:58:35;11.80;99.90
20915;DHT22;10617;52.032;5.298;2023-11-19T23:02:37;11.80;99.90
20915;DHT22;10617;52.032;5.298;2023-11-19T23:06:38;11.80;99.90
20915;DHT22;10617;52.032;5.298;2023-11-19T23:10:40;11.80;99.90
20915;DHT22;10617;52.032;5.298;2023-11-19T23:14:42;11.80;99.90
20915;DHT22;10617;52.032;5.298;2023-11-19T23:18:43;11.80;99.90
20915;DHT22;10617;52.032;5.298;2023-11-19T23:22:45;11.80;99.90
20915;DHT22;10617;52.032;5.298;2023-11-19T23:26:48;11.80;99.90
20915;DHT22;10617;52.032;5.298;2023-11-19T23:30:49;11.80;99.90
20915;DHT22;10617;52.032;5.298;2023-11-19T23:34:51;11.70;99.90
20915;DHT22;10617;52.032;5.298;2023-11-19T23:38:53;11.80;99.90
20915;DHT22;10617;52.032;5.298;2023-11-19T23:42:55;11.70;99.90
20915;DHT22;10617;52.032;5.298;2023-11-19T23:46:56;11.80;99.90
20915;DHT22;10617;52.032;5.298;2023-11-19T23:50:58;11.70;99.90
20915;DHT22;10617;52.032;5.298;2023-11-19T23:55:00;11.70;99.90
20915;DHT22;10617;52.032;5.298;2023-11-19T23:59:02;11.70;99.90
